Tiona, PA (16352)

2:19 PM EDT on August 28, 2015 (GMT -0400)
Brokenstraw Airport | | Change Station
CLOSE
Current Station
Personal Weather Station
Location: Pittsfield, PA
Elevation: 1235 ft
Nearby Weather Stations

Elev 1235 ft 41.83 °N, 79.36 °W | Updated 7 seconds ago

Mostly Cloudy
Mostly Cloudy
73.1 °F
Feels Like 76 °F
N
6.0
Wind Variable Wind from WNW
Gusts 9.0 mph

Today
High -- | Low -- °F
--% Chance of Precip.
Yesterday
High -- | Low -- °F
Precip. -- in
6:37 AM 7:57 PM
Waxing Gibbous, 98% visible
Pressure 30.22 in
Visibility 10.0 miles
Clouds Few 4200 ft
Heat Index 76 °F
Dew Point 60 °F
Humidity 63%
Rainfall 0.00 in
Snow Depth Not available.
UV 8 out of 12
Pollen 9.70 out of 12
Air Quality Not available.
Flu Activity Not available.
METAR KJHW 281815Z AUTO 00000KT 10SM FEW042 21/11 A3022 RMK AO1
Pressure 30.22 in
Visibility 10.0 miles
Clouds Few 4200 ft
Heat Index 76 °F
Dew Point 60 °F
Humidity 63%
Rainfall 0.00 in
Snow Depth Not available.
UV 8 out of 12
Pollen 9.70 out of 12
Air Quality Not available.
Flu Activity Not available.
METAR KJHW 281815Z AUTO 00000KT 10SM FEW042 21/11 A3022 RMK AO1

10-Day Weather Forecast

×

Almanac

Astronomy

Aug. 28, 2015 Rise Set
Actual Time
Civil Twilight
Nautical Twilight
Astronomical Twilight
Moon
Length of Visible Light
Length of Day
Tomorrow will be .
, % of the Moon is Illuminated

Today's Extremes

State Highs State Lows

Community

WunderPhotos

Upload Photos

1,850,447 photos uploaded!

WunderBlogs® & News

Nearby

Air Quality

  Air Quality AQ Index Pollutant
Not available.

Snow Depth

Station Depth Elevation

Earthquake Activity

City Distance Mag. Time & Date
Minimum magnitude displayed is 2.5.

Coastal Water Temperatures

Place Temperature

Stations

Nearby Weather Stations

Station Location Temp. Windchill Dew Point Humidity Wind Precip. Elev Updated Type